Humidity-temperature Sensor

Selected Measurement Type: Air Temperature

 
Air Temperature [°C]     6 entries per hour
Showing data from 6/22/2022 (00:00:00 Z) to 6/21/2022 (00:01:00 Z)
Previous Next [ Day | 3-Days | 7-Days ]
First Last
Prev [ Day | 3-Days | 7-Days ] Next
First Last

Start Time:     :
End Time:     :     
Time (in GMT) :00 :50 :40 :30 :20 :10
Previous Next [ Day | 3-Days | 7-Days ]
First Last
Prev [ Day | 3-Days | 7-Days ] Next
First Last


123 => good data
MM => data is determined as missing
-- => data not received/configured
Back to Top Back to Top
6/22/2022 00:00 to 23:10 25.12 25.51 26.33 26.03 26.07 26.17
6/21/2022 23:00 to 22:10 25.85 26.04 26.19 26.16 26.06 26.16
6/21/2022 22:00 to 21:10 26.25 26.35 26.22 26.10 26.10 26.05
6/21/2022 21:00 to 20:10 25.89 26.29 26.23 26.26 26.28 26.19
6/21/2022 20:00 to 19:10 26.10 26.17 26.28 26.21 26.15 26.06
6/21/2022 19:00 to 18:10 25.92 25.93 25.82 25.83 25.94 26.20
6/21/2022 18:00 to 17:10 26.32 26.26 26.12 26.16 26.34 26.15
6/21/2022 17:00 to 16:10 26.31 26.04 26.19 26.15 25.99 26.00
6/21/2022 16:00 to 15:10 26.06 25.97 26.11 26.14 26.16 25.86
6/21/2022 15:00 to 14:10 25.99 25.87 26.01 25.88 25.97 25.85
6/21/2022 14:00 to 13:10 25.92 25.98 25.65 25.91 26.13 25.87
6/21/2022 13:00 to 12:10 25.67 25.80 25.92 25.70 25.74 25.80
6/21/2022 12:00 to 11:10 25.71 25.58 25.35 25.33 25.64 26.00
6/21/2022 11:00 to 10:10 25.99 25.95 25.80 26.06 25.71 25.81
6/21/2022 10:00 to 9:10 26.13 25.89 25.89 25.76 25.62 25.82
6/21/2022 09:00 to 8:10 25.95 25.73 25.78 25.66 25.95 26.40
6/21/2022 08:00 to 7:10 26.11 26.05 26.31 26.12 26.33 26.24
6/21/2022 07:00 to 6:10 26.18 26.36 26.14 26.17 26.26 26.28
6/21/2022 06:00 to 5:10 26.30 26.28 26.38 26.40 26.25 26.14
6/21/2022 05:00 to 4:10 26.21 26.17 26.28 26.34 26.13 26.21
6/21/2022 04:00 to 3:10 26.27 26.43 26.37 26.20 26.30 26.35
6/21/2022 03:00 to 2:10 26.22 26.24 26.20 26.24 26.48 26.31
6/21/2022 02:00 to 1:10 26.33 26.28 26.34 26.31 26.25 26.24
6/21/2022 01:00 to 0:10 26.15 26.32 26.16 26.34 26.29 26.35